sensor_id;sensor_type;location;lat;lon;timestamp;temperature;humidity
55785;DHT22;41709;52.536;5.688;2023-04-24T00:00:36;11.60;90.50
55785;DHT22;41709;52.536;5.688;2023-04-24T00:03:03;11.60;90.50
55785;DHT22;41709;52.536;5.688;2023-04-24T00:05:29;11.60;90.50
55785;DHT22;41709;52.536;5.688;2023-04-24T00:07:54;11.50;90.50
55785;DHT22;41709;52.536;5.688;2023-04-24T00:10:20;11.50;90.60
55785;DHT22;41709;52.536;5.688;2023-04-24T00:12:46;11.40;90.70
55785;DHT22;41709;52.536;5.688;2023-04-24T00:15:12;11.40;90.80
55785;DHT22;41709;52.536;5.688;2023-04-24T00:17:38;11.40;90.80
55785;DHT22;41709;52.536;5.688;2023-04-24T00:20:04;11.30;90.80
55785;DHT22;41709;52.536;5.688;2023-04-24T00:22:32;11.30;90.80
55785;DHT22;41709;52.536;5.688;2023-04-24T00:24:58;11.20;90.90
55785;DHT22;41709;52.536;5.688;2023-04-24T00:27:24;11.20;91.00
55785;DHT22;41709;52.536;5.688;2023-04-24T00:29:49;11.20;91.10
55785;DHT22;41709;52.536;5.688;2023-04-24T00:32:15;11.20;91.10
55785;DHT22;41709;52.536;5.688;2023-04-24T00:34:41;11.20;91.20
55785;DHT22;41709;52.536;5.688;2023-04-24T00:37:07;11.10;91.20
55785;DHT22;41709;52.536;5.688;2023-04-24T00:39:33;11.10;91.30
55785;DHT22;41709;52.536;5.688;2023-04-24T00:41:58;11.10;91.30
55785;DHT22;41709;52.536;5.688;2023-04-24T00:44:24;11.30;91.40
55785;DHT22;41709;52.536;5.688;2023-04-24T00:46:50;11.10;91.40
55785;DHT22;41709;52.536;5.688;2023-04-24T00:49:20;11.20;91.50
55785;DHT22;41709;52.536;5.688;2023-04-24T00:51:46;11.10;91.40
55785;DHT22;41709;52.536;5.688;2023-04-24T00:54:13;11.10;91.50
55785;DHT22;41709;52.536;5.688;2023-04-24T00:56:40;11.10;91.50
55785;DHT22;41709;52.536;5.688;2023-04-24T00:59:06;11.10;91.50
55785;DHT22;41709;52.536;5.688;2023-04-24T01:01:32;11.10;91.60
55785;DHT22;41709;52.536;5.688;2023-04-24T01:03:58;11.10;91.60
55785;DHT22;41709;52.536;5.688;2023-04-24T01:06:28;11.10;91.60
55785;DHT22;41709;52.536;5.688;2023-04-24T01:08:54;11.10;91.40
55785;DHT22;41709;52.536;5.688;2023-04-24T01:11:21;11.00;91.30
55785;DHT22;41709;52.536;5.688;2023-04-24T01:13:47;10.90;91.10
55785;DHT22;41709;52.536;5.688;2023-04-24T01:16:14;10.90;91.10
55785;DHT22;41709;52.536;5.688;2023-04-24T01:18:40;10.90;91.10
55785;DHT22;41709;52.536;5.688;2023-04-24T01:21:08;10.90;91.20
55785;DHT22;41709;52.536;5.688;2023-04-24T01:23:34;10.80;91.20
55785;DHT22;41709;52.536;5.688;2023-04-24T01:26:00;10.80;91.40
55785;DHT22;41709;52.536;5.688;2023-04-24T01:28:26;10.90;91.40
55785;DHT22;41709;52.536;5.688;2023-04-24T01:30:52;10.80;91.40
55785;DHT22;41709;52.536;5.688;2023-04-24T01:33:20;10.80;91.50
55785;DHT22;41709;52.536;5.688;2023-04-24T01:35:46;10.80;91.50
55785;DHT22;41709;52.536;5.688;2023-04-24T01:38:12;10.70;91.50
55785;DHT22;41709;52.536;5.688;2023-04-24T01:40:37;10.70;91.70
55785;DHT22;41709;52.536;5.688;2023-04-24T01:43:03;10.70;91.80
55785;DHT22;41709;52.536;5.688;2023-04-24T01:45:29;10.70;91.90
55785;DHT22;41709;52.536;5.688;2023-04-24T01:47:55;10.70;92.00
55785;DHT22;41709;52.536;5.688;2023-04-24T01:50:20;10.60;92.10
55785;DHT22;41709;52.536;5.688;2023-04-24T01:52:46;10.60;92.20
55785;DHT22;41709;52.536;5.688;2023-04-24T01:55:12;10.50;92.30
55785;DHT22;41709;52.536;5.688;2023-04-24T01:57:37;10.50;92.40
55785;DHT22;41709;52.536;5.688;2023-04-24T02:00:04;10.50;92.40
55785;DHT22;41709;52.536;5.688;2023-04-24T02:02:30;10.50;92.40
55785;DHT22;41709;52.536;5.688;2023-04-24T02:04:56;10.50;92.50
55785;DHT22;41709;52.536;5.688;2023-04-24T02:07:22;10.50;92.60
55785;DHT22;41709;52.536;5.688;2023-04-24T02:09:48;10.50;92.60
55785;DHT22;41709;52.536;5.688;2023-04-24T02:12:17;10.40;92.70
55785;DHT22;41709;52.536;5.688;2023-04-24T02:14:43;10.20;92.90
55785;DHT22;41709;52.536;5.688;2023-04-24T02:17:09;10.10;93.40
55785;DHT22;41709;52.536;5.688;2023-04-24T02:19:34;9.90;93.90
55785;DHT22;41709;52.536;5.688;2023-04-24T02:22:00;9.60;94.50
55785;DHT22;41709;52.536;5.688;2023-04-24T02:24:26;9.40;94.70
55785;DHT22;41709;52.536;5.688;2023-04-24T02:26:51;9.30;95.10
55785;DHT22;41709;52.536;5.688;2023-04-24T02:29:17;9.20;95.30
55785;DHT22;41709;52.536;5.688;2023-04-24T02:31:43;9.20;95.20
55785;DHT22;41709;52.536;5.688;2023-04-24T02:34:08;9.10;95.30
55785;DHT22;41709;52.536;5.688;2023-04-24T02:36:34;9.10;95.40
55785;DHT22;41709;52.536;5.688;2023-04-24T02:38:59;9.10;95.50
55785;DHT22;41709;52.536;5.688;2023-04-24T02:41:26;9.20;95.80
55785;DHT22;41709;52.536;5.688;2023-04-24T02:43:56;9.00;95.90
55785;DHT22;41709;52.536;5.688;2023-04-24T02:46:22;9.00;96.00
55785;DHT22;41709;52.536;5.688;2023-04-24T02:48:47;9.00;96.00
55785;DHT22;41709;52.536;5.688;2023-04-24T02:51:13;9.00;95.80
55785;DHT22;41709;52.536;5.688;2023-04-24T02:53:38;9.00;95.60
55785;DHT22;41709;52.536;5.688;2023-04-24T02:56:04;9.00;95.50
55785;DHT22;41709;52.536;5.688;2023-04-24T02:58:30;9.00;95.60
55785;DHT22;41709;52.536;5.688;2023-04-24T03:00:56;8.90;95.60
55785;DHT22;41709;52.536;5.688;2023-04-24T03:03:22;8.80;95.20
55785;DHT22;41709;52.536;5.688;2023-04-24T03:05:47;8.60;95.40
55785;DHT22;41709;52.536;5.688;2023-04-24T03:08:13;8.50;95.70
55785;DHT22;41709;52.536;5.688;2023-04-24T03:10:39;8.40;95.90
55785;DHT22;41709;52.536;5.688;2023-04-24T03:13:05;8.40;96.10
55785;DHT22;41709;52.536;5.688;2023-04-24T03:15:31;8.30;96.10
55785;DHT22;41709;52.536;5.688;2023-04-24T03:17:56;8.20;96.20
55785;DHT22;41709;52.536;5.688;2023-04-24T03:20:22;8.20;96.20
55785;DHT22;41709;52.536;5.688;2023-04-24T03:22:47;8.20;96.20
55785;DHT22;41709;52.536;5.688;2023-04-24T03:25:13;8.20;96.20
55785;DHT22;41709;52.536;5.688;2023-04-24T03:27:38;8.20;96.20
55785;DHT22;41709;52.536;5.688;2023-04-24T03:30:08;8.20;96.50
55785;DHT22;41709;52.536;5.688;2023-04-24T03:32:34;8.20;96.60
55785;DHT22;41709;52.536;5.688;2023-04-24T03:35:00;8.10;96.50
55785;DHT22;41709;52.536;5.688;2023-04-24T03:37:26;8.20;96.60
55785;DHT22;41709;52.536;5.688;2023-04-24T03:39:52;8.20;96.60
55785;DHT22;41709;52.536;5.688;2023-04-24T03:42:17;8.20;96.60
55785;DHT22;41709;52.536;5.688;2023-04-24T03:44:43;8.20;96.80
55785;DHT22;41709;52.536;5.688;2023-04-24T03:47:09;8.20;96.80
55785;DHT22;41709;52.536;5.688;2023-04-24T03:49:34;8.20;96.90
55785;DHT22;41709;52.536;5.688;2023-04-24T03:52:00;8.20;97.00
55785;DHT22;41709;52.536;5.688;2023-04-24T03:54:25;8.20;97.00
55785;DHT22;41709;52.536;5.688;2023-04-24T03:56:51;8.30;97.10
55785;DHT22;41709;52.536;5.688;2023-04-24T03:59:16;8.30;97.20
55785;DHT22;41709;52.536;5.688;2023-04-24T04:01:42;8.30;97.40
55785;DHT22;41709;52.536;5.688;2023-04-24T04:04:07;8.40;97.30
55785;DHT22;41709;52.536;5.688;2023-04-24T04:06:33;8.50;97.10
55785;DHT22;41709;52.536;5.688;2023-04-24T04:08:59;8.50;96.90
55785;DHT22;41709;52.536;5.688;2023-04-24T04:11:25;8.50;96.70
55785;DHT22;41709;52.536;5.688;2023-04-24T04:13:51;8.60;96.60
55785;DHT22;41709;52.536;5.688;2023-04-24T04:16:17;8.60;96.60
55785;DHT22;41709;52.536;5.688;2023-04-24T04:18:43;8.60;96.30
55785;DHT22;41709;52.536;5.688;2023-04-24T04:21:09;8.70;96.20
55785;DHT22;41709;52.536;5.688;2023-04-24T04:23:34;8.70;96.00
55785;DHT22;41709;52.536;5.688;2023-04-24T04:26:00;8.70;96.00
55785;DHT22;41709;52.536;5.688;2023-04-24T04:28:26;8.70;95.90
55785;DHT22;41709;52.536;5.688;2023-04-24T04:30:52;8.80;95.80
55785;DHT22;41709;52.536;5.688;2023-04-24T04:33:21;8.80;95.80
55785;DHT22;41709;52.536;5.688;2023-04-24T04:35:47;8.80;95.80
55785;DHT22;41709;52.536;5.688;2023-04-24T04:38:18;8.80;95.80
55785;DHT22;41709;52.536;5.688;2023-04-24T04:40:44;8.80;95.80
55785;DHT22;41709;52.536;5.688;2023-04-24T04:43:10;8.90;95.60
55785;DHT22;41709;52.536;5.688;2023-04-24T04:45:37;8.90;95.60
55785;DHT22;41709;52.536;5.688;2023-04-24T04:48:04;8.90;95.60
55785;DHT22;41709;52.536;5.688;2023-04-24T04:50:31;9.00;95.50
55785;DHT22;41709;52.536;5.688;2023-04-24T04:52:56;9.00;95.40
55785;DHT22;41709;52.536;5.688;2023-04-24T04:55:22;9.00;95.40
55785;DHT22;41709;52.536;5.688;2023-04-24T04:57:47;9.00;95.40
55785;DHT22;41709;52.536;5.688;2023-04-24T05:00:13;9.10;95.20
55785;DHT22;41709;52.536;5.688;2023-04-24T05:02:39;9.10;95.10
55785;DHT22;41709;52.536;5.688;2023-04-24T05:05:05;9.10;95.00
55785;DHT22;41709;52.536;5.688;2023-04-24T05:07:31;9.20;95.10
55785;DHT22;41709;52.536;5.688;2023-04-24T05:09:57;9.20;95.00
55785;DHT22;41709;52.536;5.688;2023-04-24T05:12:22;9.20;95.10
55785;DHT22;41709;52.536;5.688;2023-04-24T05:14:48;9.30;95.20
55785;DHT22;41709;52.536;5.688;2023-04-24T05:17:13;9.30;95.20
55785;DHT22;41709;52.536;5.688;2023-04-24T05:19:39;9.30;95.30
55785;DHT22;41709;52.536;5.688;2023-04-24T05:22:05;9.40;95.30
55785;DHT22;41709;52.536;5.688;2023-04-24T05:24:33;9.40;95.20
55785;DHT22;41709;52.536;5.688;2023-04-24T05:26:59;9.50;95.10
55785;DHT22;41709;52.536;5.688;2023-04-24T05:29:25;9.50;95.10
55785;DHT22;41709;52.536;5.688;2023-04-24T05:31:51;9.40;95.10
55785;DHT22;41709;52.536;5.688;2023-04-24T05:34:17;9.40;95.10
55785;DHT22;41709;52.536;5.688;2023-04-24T05:36:43;9.40;95.10
55785;DHT22;41709;52.536;5.688;2023-04-24T05:39:09;9.20;95.40
55785;DHT22;41709;52.536;5.688;2023-04-24T05:41:34;9.30;95.40
55785;DHT22;41709;52.536;5.688;2023-04-24T05:44:00;9.30;95.10
55785;DHT22;41709;52.536;5.688;2023-04-24T05:46:26;9.40;95.10
55785;DHT22;41709;52.536;5.688;2023-04-24T05:48:51;9.40;95.00
55785;DHT22;41709;52.536;5.688;2023-04-24T05:51:17;9.40;94.90
55785;DHT22;41709;52.536;5.688;2023-04-24T05:53:42;9.30;95.00
55785;DHT22;41709;52.536;5.688;2023-04-24T05:56:08;9.30;95.00
55785;DHT22;41709;52.536;5.688;2023-04-24T05:58:34;9.10;95.30
55785;DHT22;41709;52.536;5.688;2023-04-24T06:00:59;9.10;95.50
55785;DHT22;41709;52.536;5.688;2023-04-24T06:03:27;9.10;95.50
55785;DHT22;41709;52.536;5.688;2023-04-24T06:05:53;9.20;95.40
55785;DHT22;41709;52.536;5.688;2023-04-24T06:08:18;9.20;95.30
55785;DHT22;41709;52.536;5.688;2023-04-24T06:10:44;9.10;95.40
55785;DHT22;41709;52.536;5.688;2023-04-24T06:13:10;9.10;95.60
55785;DHT22;41709;52.536;5.688;2023-04-24T06:15:37;9.00;95.60
55785;DHT22;41709;52.536;5.688;2023-04-24T06:18:02;9.10;95.50
55785;DHT22;41709;52.536;5.688;2023-04-24T06:20:28;9.10;95.40
55785;DHT22;41709;52.536;5.688;2023-04-24T06:22:54;9.10;95.40
55785;DHT22;41709;52.536;5.688;2023-04-24T06:25:20;9.10;95.40
55785;DHT22;41709;52.536;5.688;2023-04-24T06:27:46;9.10;95.30
55785;DHT22;41709;52.536;5.688;2023-04-24T06:30:12;9.10;95.30
55785;DHT22;41709;52.536;5.688;2023-04-24T06:32:37;9.00;95.40
55785;DHT22;41709;52.536;5.688;2023-04-24T06:35:03;9.00;95.50
55785;DHT22;41709;52.536;5.688;2023-04-24T06:37:29;8.90;95.50
55785;DHT22;41709;52.536;5.688;2023-04-24T06:39:55;8.80;95.40
55785;DHT22;41709;52.536;5.688;2023-04-24T06:42:21;8.60;95.60
55785;DHT22;41709;52.536;5.688;2023-04-24T06:44:47;8.60;95.90
55785;DHT22;41709;52.536;5.688;2023-04-24T06:47:13;8.40;95.90
55785;DHT22;41709;52.536;5.688;2023-04-24T06:49:39;8.30;96.00
55785;DHT22;41709;52.536;5.688;2023-04-24T06:52:06;8.40;96.00
55785;DHT22;41709;52.536;5.688;2023-04-24T06:54:32;8.20;96.20
55785;DHT22;41709;52.536;5.688;2023-04-24T06:56:58;8.10;96.30
55785;DHT22;41709;52.536;5.688;2023-04-24T06:59:24;8.10;96.20
55785;DHT22;41709;52.536;5.688;2023-04-24T07:01:50;8.10;96.20
55785;DHT22;41709;52.536;5.688;2023-04-24T07:04:17;8.10;96.10
55785;DHT22;41709;52.536;5.688;2023-04-24T07:06:43;8.00;96.10
55785;DHT22;41709;52.536;5.688;2023-04-24T07:09:09;8.00;96.10
55785;DHT22;41709;52.536;5.688;2023-04-24T07:11:35;7.90;96.20
55785;DHT22;41709;52.536;5.688;2023-04-24T07:14:02;7.90;96.20
55785;DHT22;41709;52.536;5.688;2023-04-24T07:16:28;7.80;96.40
55785;DHT22;41709;52.536;5.688;2023-04-24T07:18:53;7.90;96.20
55785;DHT22;41709;52.536;5.688;2023-04-24T07:21:19;7.90;96.20
55785;DHT22;41709;52.536;5.688;2023-04-24T07:23:44;7.80;96.40
55785;DHT22;41709;52.536;5.688;2023-04-24T07:26:10;7.80;96.30
55785;DHT22;41709;52.536;5.688;2023-04-24T07:28:36;7.80;96.20
55785;DHT22;41709;52.536;5.688;2023-04-24T07:31:01;7.90;96.20
55785;DHT22;41709;52.536;5.688;2023-04-24T07:33:27;7.90;96.00
55785;DHT22;41709;52.536;5.688;2023-04-24T07:35:53;7.90;95.90
55785;DHT22;41709;52.536;5.688;2023-04-24T07:38:18;7.90;95.90
55785;DHT22;41709;52.536;5.688;2023-04-24T07:40:48;7.90;95.80
55785;DHT22;41709;52.536;5.688;2023-04-24T07:43:14;7.80;95.80
55785;DHT22;41709;52.536;5.688;2023-04-24T07:45:40;7.90;95.60
55785;DHT22;41709;52.536;5.688;2023-04-24T07:48:06;7.80;95.30
55785;DHT22;41709;52.536;5.688;2023-04-24T07:50:32;7.80;95.10
55785;DHT22;41709;52.536;5.688;2023-04-24T07:52:57;7.80;95.00
55785;DHT22;41709;52.536;5.688;2023-04-24T07:55:23;7.80;95.10
55785;DHT22;41709;52.536;5.688;2023-04-24T07:57:49;7.80;95.00
55785;DHT22;41709;52.536;5.688;2023-04-24T08:00:15;7.80;95.00
55785;DHT22;41709;52.536;5.688;2023-04-24T08:02:40;7.80;95.00
55785;DHT22;41709;52.536;5.688;2023-04-24T08:05:06;7.70;95.10
55785;DHT22;41709;52.536;5.688;2023-04-24T08:07:32;7.70;95.20
55785;DHT22;41709;52.536;5.688;2023-04-24T08:09:58;7.70;95.10
55785;DHT22;41709;52.536;5.688;2023-04-24T08:12:24;7.90;95.10
55785;DHT22;41709;52.536;5.688;2023-04-24T08:14:50;7.90;94.90
55785;DHT22;41709;52.536;5.688;2023-04-24T08:17:17;8.00;94.90
55785;DHT22;41709;52.536;5.688;2023-04-24T08:19:42;8.00;94.70
55785;DHT22;41709;52.536;5.688;2023-04-24T08:22:13;7.90;94.90
55785;DHT22;41709;52.536;5.688;2023-04-24T08:24:38;8.00;94.90
55785;DHT22;41709;52.536;5.688;2023-04-24T08:27:04;8.00;94.80
55785;DHT22;41709;52.536;5.688;2023-04-24T08:29:30;7.80;95.00
55785;DHT22;41709;52.536;5.688;2023-04-24T08:31:55;7.90;94.80
55785;DHT22;41709;52.536;5.688;2023-04-24T08:34:22;8.00;94.70
55785;DHT22;41709;52.536;5.688;2023-04-24T08:36:47;8.00;94.70
55785;DHT22;41709;52.536;5.688;2023-04-24T08:39:13;8.00;94.40
55785;DHT22;41709;52.536;5.688;2023-04-24T08:41:41;8.00;94.30
55785;DHT22;41709;52.536;5.688;2023-04-24T08:44:09;8.10;94.00
55785;DHT22;41709;52.536;5.688;2023-04-24T08:46:35;8.00;93.90
55785;DHT22;41709;52.536;5.688;2023-04-24T08:49:02;8.00;93.60
55785;DHT22;41709;52.536;5.688;2023-04-24T08:51:29;8.10;93.50
55785;DHT22;41709;52.536;5.688;2023-04-24T08:53:56;8.10;93.60
55785;DHT22;41709;52.536;5.688;2023-04-24T08:56:23;8.20;93.60
55785;DHT22;41709;52.536;5.688;2023-04-24T08:58:53;8.10;93.40
55785;DHT22;41709;52.536;5.688;2023-04-24T09:01:20;8.00;93.20
55785;DHT22;41709;52.536;5.688;2023-04-24T09:03:48;8.00;93.80
55785;DHT22;41709;52.536;5.688;2023-04-24T09:06:16;7.80;94.30
55785;DHT22;41709;52.536;5.688;2023-04-24T09:08:43;7.90;94.60
55785;DHT22;41709;52.536;5.688;2023-04-24T09:11:11;7.80;95.00
55785;DHT22;41709;52.536;5.688;2023-04-24T09:13:38;7.70;95.10
55785;DHT22;41709;52.536;5.688;2023-04-24T09:16:04;7.70;95.40
55785;DHT22;41709;52.536;5.688;2023-04-24T09:18:29;7.60;95.60
55785;DHT22;41709;52.536;5.688;2023-04-24T09:21:04;7.60;95.90
55785;DHT22;41709;52.536;5.688;2023-04-24T09:23:32;7.60;96.00
55785;DHT22;41709;52.536;5.688;2023-04-24T09:25:59;7.60;96.00
55785;DHT22;41709;52.536;5.688;2023-04-24T09:28:41;7.60;96.10
55785;DHT22;41709;52.536;5.688;2023-04-24T09:31:15;7.70;96.00
55785;DHT22;41709;52.536;5.688;2023-04-24T09:34:00;7.70;96.00
55785;DHT22;41709;52.536;5.688;2023-04-24T09:36:29;7.80;96.00
55785;DHT22;41709;52.536;5.688;2023-04-24T09:39:02;7.70;95.40
55785;DHT22;41709;52.536;5.688;2023-04-24T09:41:29;7.70;95.40
55785;DHT22;41709;52.536;5.688;2023-04-24T09:43:55;7.70;95.40
55785;DHT22;41709;52.536;5.688;2023-04-24T09:46:29;7.70;95.30
55785;DHT22;41709;52.536;5.688;2023-04-24T09:48:56;7.70;95.10
55785;DHT22;41709;52.536;5.688;2023-04-24T09:51:34;7.80;94.80
55785;DHT22;41709;52.536;5.688;2023-04-24T09:54:01;7.70;93.70
55785;DHT22;41709;52.536;5.688;2023-04-24T09:56:27;7.70;93.60
55785;DHT22;41709;52.536;5.688;2023-04-24T09:58:54;7.80;93.60
55785;DHT22;41709;52.536;5.688;2023-04-24T10:01:30;7.90;93.70
55785;DHT22;41709;52.536;5.688;2023-04-24T10:03:56;7.90;93.00
55785;DHT22;41709;52.536;5.688;2023-04-24T10:06:21;7.90;92.60
55785;DHT22;41709;52.536;5.688;2023-04-24T10:08:48;7.90;93.40
55785;DHT22;41709;52.536;5.688;2023-04-24T10:11:16;8.00;93.30
55785;DHT22;41709;52.536;5.688;2023-04-24T10:13:42;8.00;92.70
55785;DHT22;41709;52.536;5.688;2023-04-24T10:16:08;8.00;92.30
55785;DHT22;41709;52.536;5.688;2023-04-24T10:18:35;8.00;93.10
55785;DHT22;41709;52.536;5.688;2023-04-24T10:21:01;8.00;92.40
55785;DHT22;41709;52.536;5.688;2023-04-24T10:23:27;8.10;92.60
55785;DHT22;41709;52.536;5.688;2023-04-24T10:25:53;8.10;91.60
55785;DHT22;41709;52.536;5.688;2023-04-24T10:28:20;8.10;91.20
55785;DHT22;41709;52.536;5.688;2023-04-24T10:30:47;8.20;91.30
55785;DHT22;41709;52.536;5.688;2023-04-24T10:33:14;8.20;90.90
55785;DHT22;41709;52.536;5.688;2023-04-24T10:35:45;8.20;90.30
55785;DHT22;41709;52.536;5.688;2023-04-24T10:38:16;8.10;91.20
55785;DHT22;41709;52.536;5.688;2023-04-24T10:40:43;8.10;90.90
55785;DHT22;41709;52.536;5.688;2023-04-24T10:43:09;8.20;91.90
55785;DHT22;41709;52.536;5.688;2023-04-24T10:45:37;8.20;90.70
55785;DHT22;41709;52.536;5.688;2023-04-24T10:48:08;8.20;90.80
55785;DHT22;41709;52.536;5.688;2023-04-24T10:50:46;8.20;90.30
55785;DHT22;41709;52.536;5.688;2023-04-24T10:53:17;8.20;88.90
55785;DHT22;41709;52.536;5.688;2023-04-24T10:55:47;8.20;90.50
55785;DHT22;41709;52.536;5.688;2023-04-24T10:58:14;8.20;90.20
55785;DHT22;41709;52.536;5.688;2023-04-24T11:00:42;8.30;90.70
55785;DHT22;41709;52.536;5.688;2023-04-24T11:03:23;8.30;89.50
55785;DHT22;41709;52.536;5.688;2023-04-24T11:05:57;8.20;87.50
55785;DHT22;41709;52.536;5.688;2023-04-24T11:11:03;8.10;88.10
55785;DHT22;41709;52.536;5.688;2023-04-24T11:14:08;8.10;89.20
55785;DHT22;41709;52.536;5.688;2023-04-24T11:16:52;8.10;90.00
55785;DHT22;41709;52.536;5.688;2023-04-24T11:19:23;8.10;90.00
55785;DHT22;41709;52.536;5.688;2023-04-24T11:22:03;8.10;90.30
55785;DHT22;41709;52.536;5.688;2023-04-24T11:35:18;8.00;91.50
55785;DHT22;41709;52.536;5.688;2023-04-24T11:37:46;8.00;91.80
55785;DHT22;41709;52.536;5.688;2023-04-24T11:40:14;8.00;90.90
55785;DHT22;41709;52.536;5.688;2023-04-24T11:42:43;7.90;90.70
55785;DHT22;41709;52.536;5.688;2023-04-24T11:45:11;7.90;91.40
55785;DHT22;41709;52.536;5.688;2023-04-24T11:47:37;8.00;91.90
55785;DHT22;41709;52.536;5.688;2023-04-24T11:50:05;8.10;91.80
55785;DHT22;41709;52.536;5.688;2023-04-24T11:52:32;8.20;90.90
55785;DHT22;41709;52.536;5.688;2023-04-24T11:54:59;8.20;91.00
55785;DHT22;41709;52.536;5.688;2023-04-24T11:57:25;8.30;90.40
55785;DHT22;41709;52.536;5.688;2023-04-24T11:59:54;8.30;90.90
55785;DHT22;41709;52.536;5.688;2023-04-24T12:02:29;8.30;90.70
55785;DHT22;41709;52.536;5.688;2023-04-24T12:04:54;8.20;90.30
55785;DHT22;41709;52.536;5.688;2023-04-24T12:07:20;8.10;90.40
55785;DHT22;41709;52.536;5.688;2023-04-24T12:09:48;8.10;89.50
55785;DHT22;41709;52.536;5.688;2023-04-24T12:12:16;8.10;90.40
55785;DHT22;41709;52.536;5.688;2023-04-24T12:14:50;8.10;88.90
55785;DHT22;41709;52.536;5.688;2023-04-24T12:17:24;8.20;89.20
55785;DHT22;41709;52.536;5.688;2023-04-24T12:19:50;8.20;89.60
55785;DHT22;41709;52.536;5.688;2023-04-24T12:22:16;8.30;90.50
55785;DHT22;41709;52.536;5.688;2023-04-24T12:24:59;8.40;90.30
55785;DHT22;41709;52.536;5.688;2023-04-24T12:27:25;8.50;88.60
55785;DHT22;41709;52.536;5.688;2023-04-24T12:29:55;8.50;88.00
55785;DHT22;41709;52.536;5.688;2023-04-24T12:32:21;8.30;87.30
55785;DHT22;41709;52.536;5.688;2023-04-24T12:34:47;8.30;90.00
55785;DHT22;41709;52.536;5.688;2023-04-24T12:37:12;8.30;90.60
55785;DHT22;41709;52.536;5.688;2023-04-24T12:39:38;8.30;90.40
55785;DHT22;41709;52.536;5.688;2023-04-24T12:42:03;8.20;90.10
55785;DHT22;41709;52.536;5.688;2023-04-24T12:44:33;8.00;90.50
55785;DHT22;41709;52.536;5.688;2023-04-24T12:47:00;8.00;91.00
55785;DHT22;41709;52.536;5.688;2023-04-24T12:49:26;8.00;91.20
55785;DHT22;41709;52.536;5.688;2023-04-24T12:51:52;8.00;91.00
55785;DHT22;41709;52.536;5.688;2023-04-24T12:54:18;8.00;91.30
55785;DHT22;41709;52.536;5.688;2023-04-24T12:56:43;8.10;91.00
55785;DHT22;41709;52.536;5.688;2023-04-24T12:59:09;8.00;91.00
55785;DHT22;41709;52.536;5.688;2023-04-24T13:01:35;8.00;91.10
55785;DHT22;41709;52.536;5.688;2023-04-24T13:04:00;8.10;91.10
55785;DHT22;41709;52.536;5.688;2023-04-24T13:06:26;8.00;90.20
55785;DHT22;41709;52.536;5.688;2023-04-24T13:08:52;7.90;90.60
55785;DHT22;41709;52.536;5.688;2023-04-24T13:11:17;7.90;90.90
55785;DHT22;41709;52.536;5.688;2023-04-24T13:13:43;7.90;90.80
55785;DHT22;41709;52.536;5.688;2023-04-24T13:16:08;7.80;90.10
55785;DHT22;41709;52.536;5.688;2023-04-24T13:18:34;7.80;90.30
55785;DHT22;41709;52.536;5.688;2023-04-24T13:21:00;8.00;90.80
55785;DHT22;41709;52.536;5.688;2023-04-24T13:23:26;8.00;89.70
55785;DHT22;41709;52.536;5.688;2023-04-24T13:25:51;8.10;89.30
55785;DHT22;41709;52.536;5.688;2023-04-24T13:28:17;8.10;89.20
55785;DHT22;41709;52.536;5.688;2023-04-24T13:30:43;8.20;89.00
55785;DHT22;41709;52.536;5.688;2023-04-24T13:33:08;8.30;88.70
55785;DHT22;41709;52.536;5.688;2023-04-24T13:35:34;8.30;88.30
55785;DHT22;41709;52.536;5.688;2023-04-24T13:38:00;8.40;90.20
55785;DHT22;41709;52.536;5.688;2023-04-24T13:40:26;8.50;88.30
55785;DHT22;41709;52.536;5.688;2023-04-24T13:42:52;8.50;86.40
55785;DHT22;41709;52.536;5.688;2023-04-24T13:45:18;8.50;86.10
55785;DHT22;41709;52.536;5.688;2023-04-24T13:47:43;8.60;86.40
55785;DHT22;41709;52.536;5.688;2023-04-24T13:50:09;8.50;85.90
55785;DHT22;41709;52.536;5.688;2023-04-24T13:52:35;8.40;85.30
55785;DHT22;41709;52.536;5.688;2023-04-24T13:55:00;8.30;87.10
55785;DHT22;41709;52.536;5.688;2023-04-24T13:57:26;8.20;90.10
55785;DHT22;41709;52.536;5.688;2023-04-24T13:59:53;8.30;89.60
55785;DHT22;41709;52.536;5.688;2023-04-24T14:02:20;8.20;89.60
55785;DHT22;41709;52.536;5.688;2023-04-24T14:04:46;8.20;89.50
55785;DHT22;41709;52.536;5.688;2023-04-24T14:07:13;8.20;88.10
55785;DHT22;41709;52.536;5.688;2023-04-24T14:09:39;8.10;87.80
55785;DHT22;41709;52.536;5.688;2023-04-24T14:12:04;8.10;89.10
55785;DHT22;41709;52.536;5.688;2023-04-24T14:14:31;8.00;88.20
55785;DHT22;41709;52.536;5.688;2023-04-24T14:16:57;8.00;86.40
55785;DHT22;41709;52.536;5.688;2023-04-24T14:19:22;8.00;86.70
55785;DHT22;41709;52.536;5.688;2023-04-24T14:21:49;8.00;87.40
55785;DHT22;41709;52.536;5.688;2023-04-24T14:24:14;8.00;88.60
55785;DHT22;41709;52.536;5.688;2023-04-24T14:26:41;8.00;89.40
55785;DHT22;41709;52.536;5.688;2023-04-24T14:29:06;8.00;90.00
55785;DHT22;41709;52.536;5.688;2023-04-24T14:31:32;8.10;90.10
55785;DHT22;41709;52.536;5.688;2023-04-24T14:33:57;8.10;90.00
55785;DHT22;41709;52.536;5.688;2023-04-24T14:36:23;8.10;89.20
55785;DHT22;41709;52.536;5.688;2023-04-24T14:38:49;8.00;88.60
55785;DHT22;41709;52.536;5.688;2023-04-24T14:41:15;8.00;89.10
55785;DHT22;41709;52.536;5.688;2023-04-24T14:43:40;8.00;90.00
55785;DHT22;41709;52.536;5.688;2023-04-24T14:46:06;7.90;90.60
55785;DHT22;41709;52.536;5.688;2023-04-24T14:48:32;7.90;87.80
55785;DHT22;41709;52.536;5.688;2023-04-24T14:50:57;7.80;88.40
55785;DHT22;41709;52.536;5.688;2023-04-24T14:53:23;7.70;88.30
55785;DHT22;41709;52.536;5.688;2023-04-24T14:55:49;7.80;89.70
55785;DHT22;41709;52.536;5.688;2023-04-24T14:58:14;7.80;89.80
55785;DHT22;41709;52.536;5.688;2023-04-24T15:00:40;7.90;89.70
55785;DHT22;41709;52.536;5.688;2023-04-24T15:03:05;8.10;89.40
55785;DHT22;41709;52.536;5.688;2023-04-24T15:05:31;8.30;88.60
55785;DHT22;41709;52.536;5.688;2023-04-24T15:07:57;8.40;88.20
55785;DHT22;41709;52.536;5.688;2023-04-24T15:10:22;8.40;87.30
55785;DHT22;41709;52.536;5.688;2023-04-24T15:12:49;8.50;87.80
55785;DHT22;41709;52.536;5.688;2023-04-24T15:15:15;8.50;86.60
55785;DHT22;41709;52.536;5.688;2023-04-24T15:17:40;8.60;85.30
55785;DHT22;41709;52.536;5.688;2023-04-24T15:20:06;8.70;85.40
55785;DHT22;41709;52.536;5.688;2023-04-24T15:22:32;8.80;83.50
55785;DHT22;41709;52.536;5.688;2023-04-24T15:24:58;8.80;83.00
55785;DHT22;41709;52.536;5.688;2023-04-24T15:27:24;8.70;81.90
55785;DHT22;41709;52.536;5.688;2023-04-24T15:29:49;8.70;84.60
55785;DHT22;41709;52.536;5.688;2023-04-24T15:32:15;8.60;83.60
55785;DHT22;41709;52.536;5.688;2023-04-24T15:34:40;8.60;83.90
55785;DHT22;41709;52.536;5.688;2023-04-24T15:37:06;8.50;84.00
55785;DHT22;41709;52.536;5.688;2023-04-24T15:39:32;8.60;83.80
55785;DHT22;41709;52.536;5.688;2023-04-24T15:41:59;8.50;85.10
55785;DHT22;41709;52.536;5.688;2023-04-24T15:44:25;8.40;84.10
55785;DHT22;41709;52.536;5.688;2023-04-24T15:46:51;8.50;84.30
55785;DHT22;41709;52.536;5.688;2023-04-24T15:49:17;8.50;83.30
55785;DHT22;41709;52.536;5.688;2023-04-24T15:51:43;8.60;84.90
55785;DHT22;41709;52.536;5.688;2023-04-24T15:54:08;8.70;82.70